createdAt,value
2024-01-03T00:03:21.334Z,5.37
2024-01-03T00:08:32.223Z,6.10
2024-01-03T00:13:54.064Z,4.93
2024-01-03T00:19:07.317Z,5.90
2024-01-03T00:24:19.579Z,5.27
2024-01-03T00:29:49.335Z,5.93
2024-01-03T00:35:01.518Z,5.10
2024-01-03T00:45:45.484Z,5.17
2024-01-03T00:50:54.339Z,5.00
2024-01-03T00:56:05.865Z,7.10
2024-01-03T01:01:19.122Z,4.67
2024-01-03T01:06:27.563Z,6.10
2024-01-03T01:11:40.544Z,5.53
2024-01-03T01:16:50.076Z,4.77
2024-01-03T01:22:08.599Z,4.87
2024-01-03T01:27:38.056Z,5.73
2024-01-03T01:32:58.217Z,6.30
2024-01-03T01:38:06.864Z,4.67
2024-01-03T01:43:18.039Z,6.13
2024-01-03T01:48:29.000Z,5.17
2024-01-03T01:53:43.547Z,6.20
2024-01-03T01:59:02.062Z,6.40
2024-01-03T02:04:12.993Z,6.03
2024-01-03T02:09:34.199Z,5.93
2024-01-03T02:14:36.955Z,6.13
2024-01-03T02:19:46.929Z,5.40
2024-01-03T02:25:04.098Z,6.00
2024-01-03T02:30:18.939Z,3.37
2024-01-03T02:40:54.964Z,5.37
2024-01-03T02:51:47.311Z,6.37
2024-01-03T02:57:07.056Z,6.20
2024-01-03T03:02:38.077Z,6.10
2024-01-03T03:13:35.570Z,4.57
2024-01-03T03:18:53.335Z,5.07
2024-01-03T03:24:13.071Z,5.47
2024-01-03T03:29:24.738Z,5.13
2024-01-03T03:34:31.382Z,2.90
2024-01-03T03:39:47.512Z,3.93
2024-01-03T03:44:55.997Z,4.03
2024-01-03T03:50:11.041Z,4.27
2024-01-03T03:55:48.991Z,4.20
2024-01-03T04:00:59.661Z,3.47
2024-01-03T04:06:05.909Z,2.53
2024-01-03T04:11:22.193Z,3.23
2024-01-03T04:16:32.571Z,3.43
2024-01-03T04:21:47.639Z,4.23
2024-01-03T04:27:01.894Z,2.40
2024-01-03T04:32:17.695Z,2.27
2024-01-03T04:37:31.583Z,3.27
2024-01-03T04:42:42.313Z,3.23
2024-01-03T04:48:01.533Z,2.83
2024-01-03T04:53:20.702Z,3.10
2024-01-03T04:58:35.137Z,3.20
2024-01-03T05:03:50.169Z,3.63
2024-01-03T05:09:08.830Z,1.87
2024-01-03T05:25:51.301Z,2.73
2024-01-03T05:31:38.270Z,4.30
2024-01-03T05:36:53.355Z,2.90
2024-01-03T05:42:19.621Z,3.40
2024-01-03T05:48:01.279Z,2.23
2024-01-03T05:58:49.680Z,2.67
2024-01-03T06:04:14.591Z,2.50
2024-01-03T06:09:28.447Z,2.13
2024-01-03T06:14:53.044Z,1.83
2024-01-03T06:20:02.325Z,1.67
2024-01-03T06:25:33.720Z,1.87
2024-01-03T06:31:06.048Z,2.27
2024-01-03T06:36:30.136Z,3.50
2024-01-03T06:47:21.476Z,2.30
2024-01-03T06:52:42.212Z,2.43
2024-01-03T06:58:19.308Z,2.00
2024-01-03T07:03:39.042Z,2.27
2024-01-03T07:09:22.283Z,2.07
2024-01-03T07:14:39.039Z,2.90
2024-01-03T07:19:52.492Z,2.40
2024-01-03T07:25:11.687Z,8.80
2024-01-03T07:30:44.417Z,2.87
2024-01-03T07:35:59.087Z,2.23
2024-01-03T07:41:10.239Z,3.57
2024-01-03T07:46:24.261Z,2.00
2024-01-03T07:51:30.694Z,2.97
2024-01-03T07:56:40.295Z,3.53
2024-01-03T08:02:02.658Z,3.60
2024-01-03T08:07:27.508Z,4.33
2024-01-03T08:12:40.964Z,3.10
2024-01-03T08:17:56.469Z,3.23
2024-01-03T08:23:12.912Z,3.77
2024-01-03T08:40:16.326Z,3.00
2024-01-03T08:51:32.954Z,4.50
2024-01-03T08:56:53.225Z,3.60
2024-01-03T09:02:12.886Z,3.97
2024-01-03T09:07:35.169Z,5.20
2024-01-03T09:18:29.524Z,6.53
2024-01-03T09:23:40.146Z,4.00
2024-01-03T09:28:55.096Z,3.70
2024-01-03T09:34:19.066Z,2.67
2024-01-03T09:45:57.091Z,3.70
2024-01-03T09:57:22.856Z,3.70
2024-01-03T10:02:47.015Z,3.60
2024-01-03T10:08:28.985Z,5.20
2024-01-03T10:13:44.426Z,4.67
2024-01-03T10:19:25.868Z,4.30
2024-01-03T10:25:14.719Z,3.17
2024-01-03T10:30:34.736Z,4.20
2024-01-03T10:35:50.298Z,5.50
2024-01-03T10:47:02.317Z,6.30
2024-01-03T10:52:23.967Z,6.00
2024-01-03T10:57:57.257Z,5.30
2024-01-03T11:03:09.250Z,6.07
2024-01-03T11:08:21.191Z,7.10
2024-01-03T11:14:01.210Z,6.07
2024-01-03T11:19:22.372Z,5.30
2024-01-03T11:24:42.770Z,5.27
2024-01-03T11:29:55.289Z,7.00
2024-01-03T11:35:06.164Z,5.83
2024-01-03T11:40:42.972Z,12.07
2024-01-03T11:51:47.496Z,59.17
2024-01-03T11:57:32.210Z,10.00
2024-01-03T12:03:13.545Z,7.70
2024-01-03T12:26:26.837Z,5.80
2024-01-03T12:32:02.455Z,5.30
2024-01-03T12:37:26.685Z,6.57
2024-01-03T12:48:53.694Z,6.90
2024-01-03T13:05:30.184Z,7.47
2024-01-03T13:10:41.958Z,7.27
2024-01-03T13:16:04.254Z,5.23
2024-01-03T13:21:27.706Z,5.73
2024-01-03T13:26:45.016Z,5.47
2024-01-03T13:32:19.905Z,5.47
2024-01-03T13:43:18.389Z,6.73
2024-01-03T13:48:41.140Z,6.17
2024-01-03T13:54:18.904Z,6.00
2024-01-03T14:23:12.047Z,26.57
2024-01-03T14:28:33.311Z,16.40
2024-01-03T14:33:48.644Z,11.77
2024-01-03T14:39:13.670Z,12.50
2024-01-03T14:44:31.103Z,9.23
2024-01-03T15:01:09.233Z,19.93
2024-01-03T15:06:20.030Z,8.77
2024-01-03T15:11:28.465Z,13.40
2024-01-03T15:16:43.205Z,15.00
2024-01-03T15:22:28.739Z,8.93
2024-01-03T15:27:47.218Z,8.30
2024-01-03T15:38:36.937Z,16.10
2024-01-03T15:44:04.650Z,12.57
2024-01-03T15:54:48.277Z,10.37
2024-01-03T15:59:59.455Z,11.10
2024-01-03T16:05:20.389Z,10.40
2024-01-03T16:10:49.347Z,12.77
2024-01-03T16:21:52.002Z,10.27
2024-01-03T16:27:06.574Z,10.70
2024-01-03T16:32:39.526Z,10.17
2024-01-03T16:44:24.490Z,8.83
2024-01-03T16:56:03.117Z,13.23
2024-01-03T17:07:11.903Z,21.97
2024-01-03T17:18:48.195Z,15.10
2024-01-03T17:24:08.753Z,15.33
2024-01-03T17:35:29.904Z,15.27
2024-01-03T17:41:07.855Z,12.07
2024-01-03T17:46:47.667Z,14.33
2024-01-03T17:52:13.323Z,12.67
2024-01-03T17:57:31.566Z,12.00
2024-01-03T18:08:44.235Z,13.67
2024-01-03T18:14:19.869Z,15.27
2024-01-03T18:19:56.855Z,14.57
2024-01-03T18:25:25.157Z,16.47
2024-01-03T18:36:15.788Z,14.43
2024-01-03T18:41:27.661Z,17.00
2024-01-03T18:52:32.576Z,16.40
2024-01-03T19:03:18.280Z,16.87
2024-01-03T19:08:56.451Z,16.60
2024-01-03T19:14:07.304Z,23.37
2024-01-03T19:36:50.027Z,26.57
2024-01-03T19:42:31.683Z,28.77
2024-01-03T19:48:08.779Z,19.17
2024-01-03T19:59:05.422Z,17.87
2024-01-03T20:04:11.448Z,17.47
2024-01-03T20:09:19.215Z,16.97
2024-01-03T20:14:26.506Z,16.40
2024-01-03T20:19:33.570Z,15.83
2024-01-03T20:24:39.435Z,14.63
2024-01-03T20:29:45.446Z,18.03
2024-01-03T20:34:52.851Z,22.57
2024-01-03T20:52:37.435Z,25.93
2024-01-03T21:20:55.112Z,20.73
2024-01-03T21:26:23.030Z,22.80
2024-01-03T21:31:59.205Z,25.53
2024-01-03T21:42:54.051Z,21.53
2024-01-03T21:54:06.300Z,21.00
2024-01-03T22:05:20.788Z,19.57
2024-01-03T22:22:18.854Z,17.87
2024-01-03T22:27:45.705Z,19.93
2024-01-03T22:33:17.704Z,16.83
2024-01-03T22:38:36.208Z,16.93
2024-01-03T22:44:06.153Z,18.63
2024-01-03T22:49:25.785Z,17.27
2024-01-03T23:06:05.736Z,19.50
2024-01-03T23:11:41.988Z,15.03
2024-01-03T23:17:02.707Z,19.03
2024-01-03T23:22:17.185Z,18.50
2024-01-03T23:27:30.872Z,17.20
2024-01-03T23:32:44.248Z,19.43
2024-01-03T23:38:24.957Z,24.17
2024-01-03T23:50:01.812Z,22.53
